Decoded Metar for LEGE (GIRONA in SPAIN) (IATA:GRO) | Meteo·Mobile Aviation Weather
aviador You're here:

LEGE Decoded Metar

GIRONA in SPAIN
Report Time2019-07-24 05:30:00
UTC Time2019-07-24 05:41:16
Flight Rules vfr VFR
Wind010° at 03 kt
W.Decomp.*RWY 02: 2.9 kt HW 0.6 kt LCW
Visibility9999 m
Phenomena:N/A
Clouds:N/A
Expected CloudBase > 400 ft AGL from Temp-Dew spread
CeilingNone
Temp21°C (ISA +7)
Dew Point20°C (94% RH)
QNH1016 hPa
Density Alt1,430 ft
Elevation423 ft
Report Wrong Elevation
Raw Report
METAR LEGE 240530Z 01003KT 320V070 CAVOK 21/20 Q1016=

Extra information for LEGE:More info

Metar Taf Metar & Taf Last 4 Metars F.Rules Stats Wind Profile Meteogram Temp Stats Airport Information Weather charts Add Link Nearby VenuesMetar ALERT Operation Metar Decoded Social comments